createdAt,value
2023-01-01T00:00:00.708Z,6.4
2023-01-01T00:05:00.736Z,6.4
2023-01-01T00:10:00.780Z,6.6
2023-01-01T00:15:01.005Z,6.6
2023-01-01T00:20:00.767Z,6.8
2023-01-01T00:25:00.789Z,6.8
2023-01-01T00:30:00.850Z,6.8
2023-01-01T00:35:00.805Z,6.8
2023-01-01T00:40:00.774Z,6.7
2023-01-01T00:45:00.775Z,6.7
2023-01-01T00:50:00.750Z,6.6
2023-01-01T00:55:00.491Z,6.6
2023-01-01T01:00:00.770Z,6.6
2023-01-01T01:05:00.734Z,6.6
2023-01-01T01:10:00.839Z,6.7
2023-01-01T01:15:00.833Z,6.7
2023-01-01T01:20:00.851Z,6.7
2023-01-01T01:25:00.792Z,6.7
2023-01-01T01:30:00.741Z,6.8
2023-01-01T01:35:00.830Z,6.8
2023-01-01T01:40:00.835Z,6.8
2023-01-01T01:45:00.721Z,6.8
2023-01-01T01:50:00.808Z,6.7
2023-01-01T01:55:00.801Z,6.7
2023-01-01T02:00:05.219Z,6.6
2023-01-01T02:05:00.809Z,6.6
2023-01-01T02:10:00.819Z,6.6
2023-01-01T02:15:00.739Z,6.6
2023-01-01T02:20:00.825Z,6.5
2023-01-01T02:25:00.807Z,6.4
2023-01-01T02:30:00.809Z,6.4
2023-01-01T02:35:00.810Z,6.4
2023-01-01T02:40:00.785Z,6.4
2023-01-01T02:45:00.784Z,6.4
2023-01-01T02:50:00.825Z,6.4
2023-01-01T02:55:00.879Z,6.4
2023-01-01T03:00:00.851Z,6.4
2023-01-01T03:05:00.829Z,6.4
2023-01-01T03:10:00.858Z,6.4
2023-01-01T03:15:00.834Z,6.4
2023-01-01T03:20:00.844Z,6.4
2023-01-01T03:25:00.824Z,6.4
2023-01-01T03:30:00.855Z,6.4
2023-01-01T03:35:00.805Z,6.5
2023-01-01T03:40:00.834Z,6.6
2023-01-01T03:45:00.780Z,6.6
2023-01-01T03:50:00.785Z,6.8
2023-01-01T03:55:00.792Z,6.9
2023-01-01T04:00:00.803Z,6.9
2023-01-01T04:05:00.763Z,7
2023-01-01T04:10:00.807Z,7.1
2023-01-01T04:15:00.769Z,7.6
2023-01-01T04:20:00.820Z,7.6
2023-01-01T04:25:00.826Z,7.6
2023-01-01T04:30:00.836Z,7.6
2023-01-01T04:35:00.791Z,7.6
2023-01-01T04:40:00.818Z,7.7
2023-01-01T04:45:00.729Z,7.8
2023-01-01T04:50:00.764Z,7.7
2023-01-01T04:55:00.851Z,7.8
2023-01-01T05:00:00.798Z,7.6
2023-01-01T05:05:00.793Z,7.7
2023-01-01T05:10:00.839Z,7.7
2023-01-01T05:15:00.845Z,7.9
2023-01-01T05:20:00.800Z,7.9
2023-01-01T05:25:00.796Z,7.8
2023-01-01T05:30:00.846Z,7.8
2023-01-01T05:35:00.896Z,7.7
2023-01-01T05:40:00.843Z,7.6
2023-01-01T05:45:00.818Z,7.5
2023-01-01T05:50:00.800Z,7.4
2023-01-01T05:55:00.910Z,7.4
2023-01-01T06:00:00.805Z,7.3
2023-01-01T06:05:00.857Z,7.3
2023-01-01T06:10:00.752Z,7.3
2023-01-01T06:15:00.982Z,7.3
2023-01-01T06:20:00.798Z,7.6
2023-01-01T06:25:00.763Z,7.8
2023-01-01T06:30:00.835Z,7.8
2023-01-01T06:35:00.787Z,7.7
2023-01-01T06:40:00.789Z,7.8
2023-01-01T06:45:00.794Z,7.6
2023-01-01T06:50:00.781Z,7.5
2023-01-01T06:55:00.780Z,7.4
2023-01-01T07:00:00.814Z,7.4
2023-01-01T07:05:00.806Z,7.5
2023-01-01T07:10:00.723Z,7.3
2023-01-01T07:15:00.769Z,7.3
2023-01-01T07:20:00.758Z,7.2
2023-01-01T07:25:00.800Z,7.1
2023-01-01T07:30:01.015Z,7.1
2023-01-01T07:35:00.791Z,7
2023-01-01T07:40:00.844Z,6.9
2023-01-01T07:45:00.801Z,6.8
2023-01-01T07:50:00.758Z,6.9
2023-01-01T07:55:00.777Z,6.8
2023-01-01T08:00:00.805Z,6.9
2023-01-01T08:05:00.794Z,6.8
2023-01-01T08:10:00.787Z,6.8
2023-01-01T08:15:00.792Z,7.1
2023-01-01T08:20:00.805Z,7.3
2023-01-01T08:25:00.769Z,7.4
2023-01-01T08:30:00.813Z,7.6
2023-01-01T08:40:00.780Z,7.9
2023-01-01T08:45:00.718Z,7.9
2023-01-01T08:50:00.858Z,7.9
2023-01-01T08:55:00.796Z,7.9
2023-01-01T09:00:00.821Z,7.9
2023-01-01T09:05:00.817Z,8.1
2023-01-01T09:10:00.860Z,8.2
2023-01-01T09:15:00.860Z,8.2
2023-01-01T09:20:00.813Z,8.3
2023-01-01T09:25:00.768Z,8.4
2023-01-01T09:30:00.855Z,8.4
2023-01-01T09:35:00.733Z,8.5
2023-01-01T09:40:00.749Z,8.6
2023-01-01T09:45:00.904Z,8.6
2023-01-01T09:50:00.789Z,8.5
2023-01-01T09:55:00.821Z,8.6
2023-01-01T10:00:00.739Z,8.6
2023-01-01T10:05:00.824Z,8.4
2023-01-01T10:10:00.783Z,8.6
2023-01-01T10:15:01.111Z,8.9
2023-01-01T10:20:00.775Z,9.2
2023-01-01T10:25:00.738Z,9
2023-01-01T10:30:04.112Z,9
2023-01-01T10:35:00.720Z,9.1
2023-01-01T10:40:00.743Z,8.8
2023-01-01T10:45:00.780Z,8.8
2023-01-01T10:50:00.785Z,8.6
2023-01-01T10:55:00.881Z,8.7
2023-01-01T11:00:00.786Z,8.8
2023-01-01T11:05:04.247Z,8.7
2023-01-01T11:10:03.950Z,8.6
2023-01-01T11:15:00.779Z,8.5
2023-01-01T11:20:02.294Z,8.4
2023-01-01T11:25:00.739Z,8.5
2023-01-01T11:30:00.755Z,8.3
2023-01-01T11:35:00.771Z,8.4
2023-01-01T11:40:00.813Z,8.3
2023-01-01T11:45:00.744Z,8.6
2023-01-01T11:50:00.776Z,8.7
2023-01-01T11:55:00.720Z,8.8
2023-01-01T12:00:00.764Z,8.6
2023-01-01T12:05:00.722Z,8.5
2023-01-01T12:10:00.717Z,8.6
2023-01-01T12:15:00.737Z,8.6
2023-01-01T12:20:00.824Z,8.6
2023-01-01T12:25:00.777Z,8.8
2023-01-01T12:30:00.832Z,8.9
2023-01-01T12:35:00.686Z,8.8
2023-01-01T12:40:00.741Z,8.7
2023-01-01T12:45:00.793Z,8.8
2023-01-01T12:50:00.738Z,8.6
2023-01-01T12:55:00.751Z,8.7
2023-01-01T13:00:00.719Z,8.8
2023-01-01T13:05:00.731Z,8.4
2023-01-01T13:10:00.733Z,8.5
2023-01-01T13:15:00.756Z,8.4
2023-01-01T13:20:00.765Z,8.6
2023-01-01T13:25:00.735Z,8.6
2023-01-01T13:30:00.743Z,8.3
2023-01-01T13:35:00.777Z,8.4
2023-01-01T13:40:00.839Z,8.6
2023-01-01T13:45:00.728Z,8.8
2023-01-01T13:50:00.782Z,9.1
2023-01-01T13:55:00.729Z,9.1
2023-01-01T14:00:00.699Z,8.8
2023-01-01T14:05:00.765Z,8.7
2023-01-01T14:10:00.722Z,8.1
2023-01-01T14:15:00.755Z,8.4
2023-01-01T14:20:00.715Z,8.3
2023-01-01T14:25:05.637Z,8.5
2023-01-01T14:30:00.731Z,8.3
2023-01-01T14:35:00.839Z,8.4
2023-01-01T14:40:00.712Z,8.3
2023-01-01T14:45:00.668Z,8.3
2023-01-01T14:50:00.750Z,8.3
2023-01-01T14:55:00.668Z,8.2
2023-01-01T15:00:00.719Z,8.1
2023-01-01T15:05:00.775Z,8.1
2023-01-01T15:10:00.706Z,8.1
2023-01-01T15:15:00.725Z,8.1
2023-01-01T15:20:00.714Z,8.1
2023-01-01T15:25:00.770Z,8
2023-01-01T15:30:00.800Z,7.9
2023-01-01T15:35:00.721Z,7.8
2023-01-01T15:40:00.739Z,7.7
2023-01-01T15:45:00.705Z,7.7
2023-01-01T15:50:00.769Z,7.6
2023-01-01T15:55:00.704Z,7.6
2023-01-01T16:00:00.710Z,7.5
2023-01-01T16:05:00.739Z,7.5
2023-01-01T16:10:00.717Z,7.4
2023-01-01T16:15:00.772Z,7.3
2023-01-01T16:20:00.667Z,7.3
2023-01-01T16:25:00.726Z,7.2
2023-01-01T16:30:00.878Z,7.3
2023-01-01T16:35:01.100Z,7.2
2023-01-01T16:40:00.737Z,7.2
2023-01-01T16:45:00.742Z,7.2
2023-01-01T16:50:00.774Z,7.2
2023-01-01T16:55:00.725Z,7.2
2023-01-01T17:00:00.843Z,7
2023-01-01T17:05:00.721Z,7
2023-01-01T17:10:00.938Z,6.9
2023-01-01T17:15:00.772Z,6.9
2023-01-01T17:20:00.970Z,6.9
2023-01-01T17:25:00.780Z,6.8
2023-01-01T17:30:00.766Z,6.8
2023-01-01T17:35:00.724Z,6.8
2023-01-01T17:40:00.695Z,6.7
2023-01-01T17:45:00.693Z,6.7
2023-01-01T17:50:00.769Z,6.7
2023-01-01T17:55:00.695Z,6.6
2023-01-01T18:00:00.777Z,6.7
2023-01-01T18:05:00.728Z,6.7
2023-01-01T18:10:00.758Z,6.6
2023-01-01T18:15:00.747Z,6.6
2023-01-01T18:20:00.732Z,6.6
2023-01-01T18:25:00.743Z,6.5
2023-01-01T18:30:00.695Z,6.6
2023-01-01T18:35:00.699Z,6.5
2023-01-01T18:40:00.717Z,6.6
2023-01-01T18:45:00.718Z,6.6
2023-01-01T18:50:00.721Z,6.6
2023-01-01T18:55:00.695Z,6.5
2023-01-01T19:00:00.753Z,6.5
2023-01-01T19:05:00.713Z,6.5
2023-01-01T19:10:00.717Z,6.5
2023-01-01T19:15:00.769Z,6.5
2023-01-01T19:20:00.691Z,6.4
2023-01-01T19:25:00.735Z,6.4
2023-01-01T19:30:00.715Z,6.3
2023-01-01T19:35:00.715Z,6.3
2023-01-01T19:40:00.731Z,6.3
2023-01-01T19:45:01.104Z,6.3
2023-01-01T19:50:00.668Z,6.3
2023-01-01T19:55:00.756Z,6.2
2023-01-01T20:00:00.772Z,6.1
2023-01-01T20:05:00.761Z,6.3
2023-01-01T20:10:00.691Z,6.3
2023-01-01T20:15:00.724Z,6.2
2023-01-01T20:20:00.881Z,6.2
2023-01-01T20:25:00.732Z,6.2
2023-01-01T20:30:00.749Z,6.2
2023-01-01T20:35:00.693Z,6.1
2023-01-01T20:40:00.800Z,6.1
2023-01-01T20:45:00.700Z,6.1
2023-01-01T20:50:00.719Z,6
2023-01-01T20:55:00.728Z,6
2023-01-01T21:05:00.730Z,6
2023-01-01T21:10:00.818Z,6
2023-01-01T21:15:00.774Z,6
2023-01-01T21:20:00.696Z,5.9
2023-01-01T21:25:17.066Z,5.9
2023-01-01T21:30:00.672Z,5.9
2023-01-01T21:35:00.751Z,5.8
2023-01-01T21:40:00.736Z,5.8
2023-01-01T21:45:00.799Z,5.8
2023-01-01T21:50:00.742Z,5.8
2023-01-01T21:55:00.715Z,5.7
2023-01-01T22:00:00.784Z,5.8
2023-01-01T22:05:00.742Z,5.7
2023-01-01T22:10:00.732Z,5.6
2023-01-01T22:15:00.729Z,5.6
2023-01-01T22:20:00.746Z,5.7
2023-01-01T22:25:00.694Z,5.7
2023-01-01T22:30:00.720Z,5.7
2023-01-01T22:35:00.759Z,5.7
2023-01-01T22:40:00.706Z,5.6
2023-01-01T22:45:00.794Z,5.6
2023-01-01T22:50:00.761Z,5.6
2023-01-01T22:55:00.682Z,5.6
2023-01-01T23:00:00.700Z,5.6
2023-01-01T23:05:00.717Z,5.6
2023-01-01T23:10:00.711Z,5.6
2023-01-01T23:15:00.833Z,5.6
2023-01-01T23:20:00.729Z,5.6
2023-01-01T23:25:00.748Z,5.6
2023-01-01T23:30:00.698Z,5.6
2023-01-01T23:35:00.814Z,5.6
2023-01-01T23:40:00.687Z,5.7
2023-01-01T23:45:00.801Z,5.7
2023-01-01T23:50:00.733Z,5.8
2023-01-01T23:55:00.804Z,5.8
